createdAt,value
2019-05-10T00:00:27.268Z,2.43
2019-05-10T00:03:13.621Z,2.23
2019-05-10T00:06:00.523Z,2.77
2019-05-10T00:08:46.877Z,2.13
2019-05-10T00:11:25.931Z,2.10
2019-05-10T00:13:56.125Z,2.40
2019-05-10T00:16:25.652Z,3.50
2019-05-10T00:18:54.502Z,2.80
2019-05-10T00:21:23.017Z,2.33
2019-05-10T00:23:51.469Z,2.27
2019-05-10T00:26:19.950Z,2.40
2019-05-10T00:28:48.387Z,2.70
2019-05-10T00:31:16.793Z,2.37
2019-05-10T00:33:45.239Z,2.77
2019-05-10T00:36:13.810Z,2.37
2019-05-10T00:38:42.309Z,3.20
2019-05-10T00:41:10.776Z,2.83
2019-05-10T00:43:39.250Z,3.30
2019-05-10T00:46:07.682Z,3.73
2019-05-10T00:48:36.100Z,3.57
2019-05-10T00:51:04.620Z,3.33
2019-05-10T00:53:33.102Z,3.83
2019-05-10T00:56:01.521Z,3.83
2019-05-10T00:58:29.942Z,3.73
2019-05-10T01:00:58.508Z,4.57
2019-05-10T01:03:27.069Z,3.27
2019-05-10T01:05:55.508Z,3.77
2019-05-10T01:08:24.024Z,3.80
2019-05-10T01:10:52.440Z,4.20
2019-05-10T01:13:20.835Z,4.27
2019-05-10T01:15:49.399Z,4.60
2019-05-10T01:18:17.834Z,4.07
2019-05-10T01:20:46.308Z,3.60
2019-05-10T01:23:14.711Z,3.63
2019-05-10T01:25:43.681Z,3.70
2019-05-10T01:28:12.109Z,4.80
2019-05-10T01:30:40.855Z,4.27
2019-05-10T01:33:09.285Z,4.03
2019-05-10T01:35:37.692Z,4.10
2019-05-10T01:38:06.130Z,4.47
2019-05-10T01:40:34.618Z,4.23
2019-05-10T01:43:03.057Z,4.13
2019-05-10T01:45:31.484Z,4.27
2019-05-10T01:47:59.936Z,4.47
2019-05-10T01:50:28.441Z,3.80
2019-05-10T01:52:56.846Z,4.60
2019-05-10T01:55:25.290Z,4.17
2019-05-10T01:57:53.732Z,4.23
2019-05-10T02:00:22.376Z,3.97
2019-05-10T02:02:50.841Z,3.47
2019-05-10T02:05:19.440Z,4.10
2019-05-10T02:07:47.950Z,3.80
2019-05-10T02:10:16.730Z,4.13
2019-05-10T02:12:45.212Z,4.40
2019-05-10T02:15:14.597Z,4.10
2019-05-10T02:17:43.096Z,4.50
2019-05-10T02:20:12.368Z,4.83
2019-05-10T02:22:40.854Z,3.97
2019-05-10T02:25:09.471Z,3.83
2019-05-10T02:27:37.941Z,3.83
2019-05-10T02:30:08.033Z,4.00
2019-05-10T02:32:36.479Z,3.50
2019-05-10T02:35:07.692Z,3.60
2019-05-10T02:37:36.097Z,3.70
2019-05-10T02:40:05.976Z,3.47
2019-05-10T02:42:34.977Z,3.60
2019-05-10T02:45:05.270Z,3.53
2019-05-10T02:47:33.709Z,3.47
2019-05-10T02:50:02.209Z,3.40
2019-05-10T02:52:31.231Z,4.13
2019-05-10T02:55:00.637Z,4.20
2019-05-10T02:57:29.602Z,4.57
2019-05-10T02:59:59.190Z,3.80
2019-05-10T03:02:28.280Z,4.03
2019-05-10T03:04:58.265Z,4.00
2019-05-10T03:07:27.034Z,3.87
2019-05-10T03:09:55.419Z,3.63
2019-05-10T03:12:26.111Z,4.57
2019-05-10T03:14:56.761Z,3.50
2019-05-10T03:17:26.548Z,3.93
2019-05-10T03:19:55.194Z,4.23
2019-05-10T03:22:25.967Z,4.00
2019-05-10T03:24:54.567Z,4.03
2019-05-10T03:27:22.952Z,4.27
2019-05-10T03:29:51.784Z,3.87
2019-05-10T03:32:20.539Z,4.63
2019-05-10T03:34:49.019Z,4.07
2019-05-10T03:37:17.818Z,4.13
2019-05-10T03:39:46.968Z,4.47
2019-05-10T03:42:15.762Z,3.63
2019-05-10T03:44:44.557Z,3.90
2019-05-10T03:47:12.968Z,4.73
2019-05-10T03:49:41.446Z,4.27
2019-05-10T03:52:09.960Z,3.87
2019-05-10T03:54:38.376Z,3.50
2019-05-10T03:57:13.830Z,3.37
2019-05-10T03:59:37.045Z,4.03
2019-05-10T04:02:05.540Z,3.93
2019-05-10T04:04:34.062Z,3.90
2019-05-10T04:07:02.491Z,4.87
2019-05-10T04:09:30.950Z,6.30
2019-05-10T04:11:59.400Z,3.83
2019-05-10T04:14:27.803Z,3.60
2019-05-10T04:16:56.236Z,3.03
2019-05-10T04:19:24.642Z,4.50
2019-05-10T04:21:53.078Z,3.53
2019-05-10T04:24:21.530Z,3.77
2019-05-10T04:26:49.938Z,3.43
2019-05-10T04:29:18.388Z,4.23
2019-05-10T04:31:46.822Z,3.60
2019-05-10T04:34:15.323Z,3.50
2019-05-10T04:36:43.728Z,3.67
2019-05-10T04:39:12.310Z,3.43
2019-05-10T04:41:40.742Z,4.03
2019-05-10T04:44:09.299Z,3.33
2019-05-10T04:46:37.712Z,4.03
2019-05-10T04:49:06.143Z,7.07
2019-05-10T04:51:34.586Z,8.53
2019-05-10T04:54:02.966Z,4.90
2019-05-10T04:56:31.380Z,5.67
2019-05-10T04:58:59.773Z,4.77
2019-05-10T05:01:28.209Z,4.67
2019-05-10T05:03:56.725Z,5.30
2019-05-10T05:06:25.191Z,5.30
2019-05-10T05:08:53.647Z,5.20
2019-05-10T05:11:22.042Z,4.77
2019-05-10T05:13:50.449Z,4.37
2019-05-10T05:16:18.982Z,3.90
2019-05-10T05:18:47.434Z,4.20
2019-05-10T05:21:15.837Z,4.20
2019-05-10T05:23:44.278Z,4.60
2019-05-10T05:26:12.681Z,4.03
2019-05-10T05:28:41.180Z,4.10
2019-05-10T05:31:09.604Z,4.00
2019-05-10T05:33:37.993Z,3.87
2019-05-10T05:36:06.428Z,3.50
2019-05-10T05:38:40.490Z,4.37
2019-05-10T05:41:04.964Z,4.10
2019-05-10T05:43:33.500Z,4.60
2019-05-10T05:46:01.917Z,4.67
2019-05-10T05:48:40.145Z,5.27
2019-05-10T05:51:00.603Z,5.53
2019-05-10T05:53:29.103Z,5.00
2019-05-10T05:55:57.493Z,5.63
2019-05-10T05:58:27.204Z,5.07
2019-05-10T06:00:55.936Z,4.63
2019-05-10T06:03:29.394Z,7.20
2019-05-10T06:05:54.595Z,8.37
2019-05-10T06:08:24.912Z,4.53
2019-05-10T06:10:57.859Z,4.67
2019-05-10T06:13:30.034Z,4.90
2019-05-10T06:15:53.547Z,3.90
2019-05-10T06:18:22.033Z,3.97
2019-05-10T06:20:50.466Z,4.27
2019-05-10T06:23:18.879Z,4.00
2019-05-10T06:25:47.300Z,3.70
2019-05-10T06:28:26.397Z,3.53
2019-05-10T06:30:45.896Z,3.40
2019-05-10T06:33:14.307Z,4.37
2019-05-10T06:35:42.736Z,3.90
2019-05-10T06:38:11.165Z,4.83
2019-05-10T06:40:46.847Z,4.93
2019-05-10T06:43:13.265Z,4.43
2019-05-10T06:45:39.882Z,4.90
2019-05-10T06:48:08.302Z,5.00
2019-05-10T06:50:36.736Z,5.77
2019-05-10T06:53:11.016Z,5.47
2019-05-10T06:55:35.390Z,5.50
2019-05-10T06:58:03.853Z,5.33
2019-05-10T07:00:32.386Z,7.00
2019-05-10T07:03:00.815Z,6.53
2019-05-10T07:05:29.410Z,4.93
2019-05-10T07:08:00.602Z,6.27
2019-05-10T07:10:27.992Z,5.37
2019-05-10T07:13:03.428Z,5.93
2019-05-10T07:15:26.596Z,6.27
2019-05-10T07:17:54.998Z,5.77
2019-05-10T07:20:28.923Z,6.00
2019-05-10T07:22:53.599Z,6.30
2019-05-10T07:25:22.010Z,5.47
2019-05-10T07:27:50.620Z,5.77
2019-05-10T07:30:30.627Z,5.70
2019-05-10T07:32:59.693Z,5.07
2019-05-10T07:35:31.059Z,4.97
2019-05-10T07:37:59.510Z,5.03
2019-05-10T07:40:28.003Z,4.97
2019-05-10T07:42:56.460Z,4.87
2019-05-10T07:45:25.483Z,4.90
2019-05-10T07:47:55.083Z,8.07
2019-05-10T07:50:23.557Z,5.23
2019-05-10T07:52:51.977Z,5.03
2019-05-10T07:55:28.045Z,4.60
2019-05-10T07:57:50.687Z,5.80
2019-05-10T08:00:19.362Z,7.43
2019-05-10T08:02:52.658Z,5.27
2019-05-10T08:05:18.556Z,4.63
2019-05-10T08:07:49.327Z,4.47
2019-05-10T08:10:18.678Z,3.57
2019-05-10T08:12:48.532Z,4.27
2019-05-10T08:15:19.523Z,4.50
2019-05-10T08:17:50.497Z,4.37
2019-05-10T08:20:33.190Z,4.70
2019-05-10T08:22:47.849Z,4.03
2019-05-10T08:25:16.426Z,4.60
2019-05-10T08:27:50.528Z,4.87
2019-05-10T08:30:28.058Z,4.30
2019-05-10T08:32:48.254Z,4.07
2019-05-10T08:35:18.708Z,4.17
2019-05-10T08:37:46.906Z,4.10
2019-05-10T08:40:19.755Z,4.40
2019-05-10T08:42:54.193Z,4.13
2019-05-10T08:45:16.067Z,3.93
2019-05-10T08:47:44.562Z,3.83
2019-05-10T08:50:29.094Z,3.70
2019-05-10T08:52:43.374Z,4.17
2019-05-10T08:55:12.449Z,3.93
2019-05-10T08:57:44.249Z,3.40
2019-05-10T09:00:13.083Z,3.77
2019-05-10T09:02:42.741Z,3.27
2019-05-10T09:05:12.498Z,3.10
2019-05-10T09:07:43.039Z,3.30
2019-05-10T09:10:12.880Z,3.33
2019-05-10T09:12:50.667Z,2.70
2019-05-10T09:15:13.506Z,2.70
2019-05-10T09:17:43.004Z,2.80
2019-05-10T09:20:20.651Z,2.60
2019-05-10T09:22:42.636Z,2.27
2019-05-10T09:25:12.869Z,3.80
2019-05-10T09:27:43.221Z,2.60
2019-05-10T09:30:14.320Z,2.83
2019-05-10T09:32:43.621Z,3.00
2019-05-10T09:35:12.878Z,2.87
2019-05-10T09:37:42.199Z,3.30
2019-05-10T09:40:13.216Z,2.97
2019-05-10T09:42:43.470Z,2.57
2019-05-10T09:45:12.868Z,2.60
2019-05-10T09:47:43.384Z,3.10
2019-05-10T09:50:12.780Z,2.90
2019-05-10T09:52:41.330Z,2.20
2019-05-10T09:55:14.858Z,2.30
2019-05-10T09:57:40.610Z,4.30
2019-05-10T10:00:10.155Z,2.67
2019-05-10T10:02:40.488Z,3.43
2019-05-10T10:05:09.487Z,2.37
2019-05-10T10:07:38.000Z,3.20
2019-05-10T10:10:07.348Z,2.57
2019-05-10T10:12:37.294Z,2.20
2019-05-10T10:15:09.291Z,1.90
2019-05-10T10:17:41.960Z,2.43
2019-05-10T10:20:08.363Z,2.40
2019-05-10T10:22:38.170Z,2.27
2019-05-10T10:25:07.379Z,2.20
2019-05-10T10:27:39.299Z,2.43
2019-05-10T10:30:12.807Z,2.13
2019-05-10T10:32:37.886Z,1.67
2019-05-10T10:35:07.868Z,1.93
2019-05-10T10:37:37.964Z,1.70
2019-05-10T10:40:08.595Z,2.20
2019-05-10T10:42:38.265Z,1.80
2019-05-10T10:45:08.910Z,2.83
2019-05-10T10:47:38.192Z,2.40
2019-05-10T10:50:13.234Z,1.50
2019-05-10T10:52:39.395Z,1.90
2019-05-10T10:55:11.110Z,1.50
2019-05-10T10:57:39.537Z,1.83
2019-05-10T11:00:10.241Z,1.60
2019-05-10T11:02:41.435Z,1.70
2019-05-10T11:05:09.355Z,1.70
2019-05-10T11:07:41.068Z,1.80
2019-05-10T11:10:16.146Z,1.47
2019-05-10T11:12:41.059Z,1.20
2019-05-10T11:15:11.389Z,1.20
2019-05-10T11:17:40.875Z,1.90
2019-05-10T11:20:11.491Z,1.80
2019-05-10T11:22:42.010Z,2.00
2019-05-10T11:25:12.741Z,2.00
2019-05-10T11:27:41.600Z,2.20
2019-05-10T11:30:12.074Z,1.70
2019-05-10T11:32:41.859Z,1.90
2019-05-10T11:35:11.783Z,2.30
2019-05-10T11:37:44.974Z,9.43
2019-05-10T11:40:11.503Z,2.67
2019-05-10T11:42:45.800Z,1.60
2019-05-10T11:45:11.176Z,1.70
2019-05-10T11:47:40.894Z,2.43
2019-05-10T11:50:10.631Z,2.03
2019-05-10T11:52:40.806Z,2.67
2019-05-10T11:55:11.449Z,2.57
2019-05-10T11:57:43.823Z,1.90
2019-05-10T12:00:24.440Z,1.87
2019-05-10T12:03:01.048Z,1.90
2019-05-10T12:05:19.918Z,1.63
2019-05-10T12:07:45.713Z,2.00
2019-05-10T12:10:20.024Z,1.50
2019-05-10T12:15:13.978Z,1.80
2019-05-10T12:17:43.854Z,1.73
2019-05-10T12:20:16.753Z,2.00
2019-05-10T12:22:47.375Z,2.20
2019-05-10T12:25:36.056Z,1.73
2019-05-10T12:26:50.486Z,2.07
2019-05-10T12:27:48.928Z,1.50
2019-05-10T12:30:16.071Z,1.80
2019-05-10T12:32:55.380Z,1.83
2019-05-10T12:35:15.017Z,1.70
2019-05-10T12:37:46.271Z,1.13
2019-05-10T12:40:15.380Z,1.63
2019-05-10T12:42:47.037Z,1.40
2019-05-10T12:45:16.087Z,1.33
2019-05-10T12:47:44.597Z,3.30
2019-05-10T12:50:14.360Z,1.50
2019-05-10T12:52:43.426Z,1.70
2019-05-10T12:55:12.054Z,1.40
2019-05-10T12:57:43.164Z,1.40
2019-05-10T13:00:13.282Z,1.50
2019-05-10T13:02:44.677Z,1.70
2019-05-10T13:05:15.228Z,1.87
2019-05-10T13:07:41.946Z,2.00
2019-05-10T13:10:12.668Z,1.20
2019-05-10T13:12:44.559Z,1.20
2019-05-10T13:15:11.437Z,1.43
2019-05-10T13:17:44.104Z,1.23
2019-05-10T13:20:11.199Z,1.20
2019-05-10T13:22:39.667Z,1.40
2019-05-10T13:25:08.435Z,1.70
2019-05-10T13:27:36.979Z,1.23
2019-05-10T13:30:07.150Z,1.40
2019-05-10T13:32:35.595Z,1.53
2019-05-10T13:35:04.826Z,1.60
2019-05-10T13:37:33.272Z,1.50
2019-05-10T13:40:05.620Z,1.20
2019-05-10T13:42:36.617Z,1.30
2019-05-10T13:45:02.160Z,1.20
2019-05-10T13:47:30.630Z,1.20
2019-05-10T13:50:00.342Z,1.07
2019-05-10T13:52:37.289Z,1.20
2019-05-10T13:54:58.975Z,1.23
2019-05-10T13:57:27.587Z,1.20
2019-05-10T14:00:02.286Z,0.83
2019-05-10T14:02:34.337Z,1.70
2019-05-10T14:05:00.371Z,3.93
2019-05-10T14:07:53.136Z,1.40
2019-05-10T14:13:17.297Z,1.00
2019-05-10T14:15:48.771Z,1.07
2019-05-10T14:18:17.283Z,1.30
2019-05-10T14:20:45.743Z,1.37
2019-05-10T14:23:17.555Z,1.37
2019-05-10T14:25:44.345Z,1.73
2019-05-10T14:28:15.770Z,1.40
2019-05-10T14:30:46.837Z,1.40
2019-05-10T14:33:14.923Z,1.03
2019-05-10T14:35:43.937Z,1.40
2019-05-10T14:38:12.596Z,1.17
2019-05-10T14:40:40.999Z,1.13
2019-05-10T14:43:09.426Z,1.43
2019-05-10T14:45:37.847Z,1.30
2019-05-10T14:48:06.320Z,1.20
2019-05-10T14:50:34.743Z,1.30
2019-05-10T14:53:03.170Z,1.40
2019-05-10T14:55:34.634Z,1.20
2019-05-10T14:58:02.005Z,1.63
2019-05-10T15:00:30.535Z,1.10
2019-05-10T15:03:02.077Z,1.60
2019-05-10T15:05:29.124Z,0.80
2019-05-10T15:07:57.645Z,1.20
2019-05-10T15:10:26.085Z,1.17
2019-05-10T15:12:54.521Z,1.33
2019-05-10T15:15:22.919Z,1.00
2019-05-10T15:17:55.089Z,1.00
2019-05-10T15:20:21.686Z,1.50
2019-05-10T15:22:50.093Z,1.47
2019-05-10T15:25:18.641Z,2.97
2019-05-10T15:27:47.078Z,1.80
2019-05-10T15:30:15.834Z,1.67
2019-05-10T15:32:44.229Z,1.47
2019-05-10T15:35:12.905Z,1.30
2019-05-10T15:37:46.412Z,1.50
2019-05-10T15:40:11.856Z,1.03
2019-05-10T15:42:40.299Z,1.10
2019-05-10T15:45:14.729Z,1.20
2019-05-10T15:47:50.698Z,1.33
2019-05-10T15:50:10.564Z,0.97
2019-05-10T15:52:45.676Z,1.20
2019-05-10T15:55:09.410Z,1.63
2019-05-10T15:57:37.797Z,1.20
2019-05-10T16:00:08.365Z,1.20
2019-05-10T16:02:36.819Z,1.17
2019-05-10T16:05:23.319Z,1.20
2019-05-10T16:07:38.559Z,0.97
2019-05-10T16:10:07.464Z,1.10
2019-05-10T16:12:37.795Z,1.20
2019-05-10T16:15:07.188Z,1.57
2019-05-10T16:17:35.895Z,1.10
2019-05-10T16:20:06.157Z,1.13
2019-05-10T16:22:34.619Z,1.50
2019-05-10T16:25:03.206Z,1.73
2019-05-10T16:27:33.944Z,1.50
2019-05-10T16:30:01.789Z,1.50
2019-05-10T16:32:34.457Z,2.00
2019-05-10T16:35:05.602Z,1.47
2019-05-10T16:37:30.671Z,1.80
2019-05-10T16:39:59.093Z,1.97
2019-05-10T16:42:33.685Z,1.63
2019-05-10T16:44:57.707Z,1.67
2019-05-10T16:47:26.173Z,1.17
2019-05-10T16:49:55.176Z,1.47
2019-05-10T16:52:26.161Z,1.40
2019-05-10T16:54:57.993Z,1.33
2019-05-10T16:57:24.144Z,1.17
2019-05-10T16:59:52.613Z,1.80
2019-05-10T17:02:21.108Z,1.80
2019-05-10T17:04:49.532Z,1.53
2019-05-10T17:07:18.819Z,1.77
2019-05-10T17:09:49.622Z,1.90
2019-05-10T17:12:22.096Z,1.60
2019-05-10T17:14:50.568Z,1.80
2019-05-10T17:17:18.867Z,1.93
2019-05-10T17:19:47.311Z,1.50
2019-05-10T17:22:15.739Z,1.67
2019-05-10T17:24:44.248Z,2.07
2019-05-10T17:27:12.713Z,1.73
2019-05-10T17:29:44.496Z,1.40
2019-05-10T17:32:11.410Z,1.40
2019-05-10T17:34:39.894Z,1.30
2019-05-10T17:37:08.331Z,1.63
2019-05-10T17:39:36.820Z,1.40
2019-05-10T17:42:05.236Z,1.40
2019-05-10T17:44:33.684Z,1.43
2019-05-10T17:47:02.139Z,1.50
2019-05-10T17:49:30.559Z,1.33
2019-05-10T17:51:59.013Z,1.70
2019-05-10T17:54:27.431Z,1.40
2019-05-10T17:56:55.922Z,1.70
2019-05-10T17:59:24.429Z,1.70
2019-05-10T18:01:52.876Z,1.87
2019-05-10T18:04:21.301Z,1.87
2019-05-10T18:06:49.984Z,1.47
2019-05-10T18:09:18.419Z,1.53
2019-05-10T18:11:46.924Z,1.70
2019-05-10T18:14:18.060Z,2.20
2019-05-10T18:16:48.329Z,1.83
2019-05-10T18:19:19.039Z,1.70
2019-05-10T18:21:45.902Z,1.40
2019-05-10T18:24:14.345Z,1.53
2019-05-10T18:26:42.803Z,1.50
2019-05-10T18:29:11.334Z,1.53
2019-05-10T18:31:39.846Z,1.90
2019-05-10T18:34:08.304Z,1.90
2019-05-10T18:36:51.286Z,1.90
2019-05-10T18:39:09.246Z,2.00
2019-05-10T18:41:41.460Z,1.90
2019-05-10T18:44:14.154Z,2.00
2019-05-10T18:46:43.615Z,2.27
2019-05-10T18:49:12.163Z,1.90
2019-05-10T18:51:40.640Z,1.63
2019-05-10T18:54:09.203Z,1.43
2019-05-10T18:56:37.638Z,1.83
2019-05-10T18:59:07.453Z,1.60
2019-05-10T19:01:38.817Z,2.00
2019-05-10T19:04:07.236Z,1.90
2019-05-10T19:06:36.611Z,1.73
2019-05-10T19:09:06.594Z,1.90
2019-05-10T19:11:38.941Z,1.63
2019-05-10T19:14:05.465Z,1.97
2019-05-10T19:16:34.376Z,2.00
2019-05-10T19:19:03.666Z,2.10
2019-05-10T19:21:32.703Z,1.93
2019-05-10T19:24:01.136Z,2.00
2019-05-10T19:26:31.614Z,2.17
2019-05-10T19:29:04.989Z,2.47
2019-05-10T19:31:31.688Z,2.40
2019-05-10T19:34:00.014Z,1.87
2019-05-10T19:36:30.282Z,2.00
2019-05-10T19:38:58.632Z,2.37
2019-05-10T19:41:27.243Z,2.47
2019-05-10T19:45:43.219Z,2.00
2019-05-10T19:46:30.187Z,1.90
2019-05-10T19:48:56.110Z,2.20
2019-05-10T19:51:24.507Z,1.67
2019-05-10T19:53:52.957Z,2.03
2019-05-10T19:56:21.374Z,1.87
2019-05-10T19:58:49.801Z,2.43
2019-05-10T20:01:18.356Z,1.93
2019-05-10T20:03:46.758Z,2.27
2019-05-10T20:06:15.175Z,2.03
2019-05-10T20:08:43.592Z,2.60
2019-05-10T20:11:12.091Z,2.10
2019-05-10T20:13:40.584Z,2.53
2019-05-10T20:16:09.088Z,2.67
2019-05-10T20:18:37.614Z,3.17
2019-05-10T20:21:06.427Z,2.70
2019-05-10T20:23:34.941Z,2.67
2019-05-10T20:26:03.460Z,2.60
2019-05-10T20:28:31.871Z,2.50
2019-05-10T20:31:00.308Z,2.90
2019-05-10T20:33:28.787Z,2.80
2019-05-10T20:35:57.295Z,2.47
2019-05-10T20:38:25.707Z,2.77
2019-05-10T20:40:56.940Z,3.07
2019-05-10T20:43:25.355Z,2.73
2019-05-10T20:45:53.905Z,2.70
2019-05-10T20:48:22.435Z,2.73
2019-05-10T20:50:50.839Z,2.67
2019-05-10T20:53:19.419Z,2.80
2019-05-10T20:55:47.905Z,3.17
2019-05-10T20:58:16.308Z,4.13
2019-05-10T21:00:45.087Z,3.67
2019-05-10T21:03:14.166Z,4.40
2019-05-10T21:05:42.597Z,5.40
2019-05-10T21:08:17.044Z,5.80
2019-05-10T21:10:41.215Z,6.17
2019-05-10T21:13:09.663Z,5.20
2019-05-10T21:15:38.117Z,5.20
2019-05-10T21:18:06.543Z,4.90
2019-05-10T21:20:35.075Z,4.73
2019-05-10T21:23:03.484Z,4.63
2019-05-10T21:25:31.917Z,4.27
2019-05-10T21:28:00.412Z,5.40
2019-05-10T21:30:28.840Z,5.37
2019-05-10T21:32:57.300Z,4.40
2019-05-10T21:35:25.722Z,4.83
2019-05-10T21:37:54.205Z,4.67
2019-05-10T21:40:22.648Z,4.53
2019-05-10T21:42:51.093Z,4.63
2019-05-10T21:45:19.538Z,5.20
2019-05-10T21:47:51.587Z,5.23
2019-05-10T21:50:18.676Z,4.73
2019-05-10T21:52:47.118Z,4.60
2019-05-10T21:55:15.532Z,4.50
2019-05-10T21:57:43.980Z,4.50
2019-05-10T22:00:12.996Z,4.10
2019-05-10T22:02:41.476Z,4.20
2019-05-10T22:05:09.911Z,4.33
2019-05-10T22:07:38.328Z,4.70
2019-05-10T22:10:07.722Z,4.83
2019-05-10T22:12:36.233Z,4.70
2019-05-10T22:15:06.114Z,4.93
2019-05-10T22:17:34.533Z,4.13
2019-05-10T22:20:03.819Z,4.50
2019-05-10T22:22:32.244Z,4.07
2019-05-10T22:25:00.653Z,4.50
2019-05-10T22:27:29.126Z,4.80
2019-05-10T22:29:57.581Z,5.50
2019-05-10T22:32:26.000Z,5.03
2019-05-10T22:34:54.483Z,5.03
2019-05-10T22:37:22.911Z,5.03
2019-05-10T22:39:51.342Z,5.57
2019-05-10T22:42:19.766Z,5.73
2019-05-10T22:44:48.170Z,6.57
2019-05-10T22:47:16.695Z,5.83
2019-05-10T22:49:46.771Z,5.47
2019-05-10T22:52:15.192Z,5.63
2019-05-10T22:54:43.609Z,5.43
2019-05-10T22:57:12.091Z,5.47
2019-05-10T22:59:40.524Z,5.57
2019-05-10T23:02:09.038Z,5.40
2019-05-10T23:04:37.475Z,5.17
2019-05-10T23:07:05.870Z,5.73
2019-05-10T23:09:34.377Z,4.90
2019-05-10T23:12:02.820Z,5.60
2019-05-10T23:14:31.257Z,5.20
2019-05-10T23:17:00.054Z,4.60
2019-05-10T23:19:28.500Z,5.13
2019-05-10T23:21:56.906Z,5.70
2019-05-10T23:24:27.090Z,5.07
2019-05-10T23:26:55.532Z,4.93
2019-05-10T23:29:23.944Z,4.83
2019-05-10T23:31:52.368Z,5.10
2019-05-10T23:34:20.819Z,5.20
2019-05-10T23:36:49.311Z,5.17
2019-05-10T23:39:17.749Z,5.37
2019-05-10T23:41:46.239Z,4.90
2019-05-10T23:44:14.628Z,5.80
2019-05-10T23:46:43.101Z,5.90
2019-05-10T23:49:11.633Z,6.43
2019-05-10T23:51:40.045Z,6.50
2019-05-10T23:54:08.584Z,5.67
2019-05-10T23:56:37.077Z,6.03
2019-05-10T23:59:05.582Z,6.67
